Flight Track Log - Related Links

Times and Time Zones

All times are in EDT time to prevent confusion due to time zone crossing. See the AFR1619 flight status page for this flight to view local times or setup timezone preferences in your user account.

Time Position Orientation Groundspeed Altitude Reporting Facility
EDT Latitude Longitude Course Direction KTS MPH feet Rate Location/Type
Sat 06:23:00 AM 49.8643 7.4287 258° West  Level Estimated
Sat 06:24:00 AM 49.8531 7.3547 257° West  Level Estimated
Sat 06:25:00 AM 49.8419 7.2807 257° West  Level Estimated
Sat 06:26:00 AM 49.8306 7.2067 257° West  Level Estimated
Sat 06:27:00 AM 49.8193 7.1328 257° West  Level Estimated
Sat 06:28:00 AM 49.8079 7.0589 257° West  Level Estimated
Sat 06:29:00 AM 49.7965 6.9851 257° West  Level Estimated
Sat 06:30:00 AM 49.7850 6.9113 256° West  Level Estimated
Sat 06:31:00 AM 49.7735 6.8375 256° West  Level Estimated
Sat 06:32:00 AM 49.7620 6.7637 256° West  Level Estimated
Sat 06:33:00 AM 49.7504 6.6900 256° West  Level Estimated
Sat 06:34:00 AM 49.7387 6.6163 256° West  Level Estimated
Sat 06:35:00 AM 49.7270 6.5427 256° West  Level Estimated
Sat 06:36:00 AM 49.7153 6.4691 256° West  Level Estimated
Sat 06:37:00 AM 49.7035 6.3955 256° West  Level Estimated
Sat 06:38:00 AM 49.6916 6.3220 256° West  Level Estimated
Sat 06:39:00 AM 49.6797 6.2485 256° West  Level Estimated
Sat 06:40:00 AM 49.6678 6.1750 256° West  Level Estimated
Sat 06:41:00 AM 49.6552 6.0978 256° West  Level Estimated
Sat 06:42:00 AM 49.6426 6.0207 256° West  Level Estimated
Sat 06:43:00 AM 49.6299 5.9436 256° West  Level Estimated
Sat 06:44:00 AM 49.6171 5.8665 256° West  Level Estimated
Sat 06:45:00 AM 49.6043 5.7895 256° West  Level Estimated
Sat 06:46:00 AM 49.5915 5.7125 256° West  Level Estimated
Sat 06:47:00 AM 49.5786 5.6355 256° West  Level Estimated
Sat 06:48:00 AM 49.5656 5.5586 255° West  Level Estimated
Sat 06:49:00 AM 49.5526 5.4818 255° West  Level Estimated
Sat 06:50:00 AM 49.5395 5.4049 255° West  Level Estimated
Sat 06:51:00 AM 49.5264 5.3281 255° West  Level Estimated
Sat 06:52:00 AM 49.5133 5.2514 255° West  Level Estimated
Sat 06:53:00 AM 49.5001 5.1747 255° West  Level Estimated
Sat 06:54:00 AM 49.4868 5.0981 255° West  Level Estimated
Sat 06:55:00 AM 49.4735 5.0214 255° West  Level Estimated
Sat 06:56:00 AM 49.4586 4.9361 255° West  Level Estimated
Sat 06:57:00 AM 49.4436 4.8508 255° West  Level Estimated
Sat 06:58:00 AM 49.4286 4.7656 255° West  Level Estimated
Sat 06:59:00 AM 49.4136 4.6804 255° West  Level Estimated
Sat 07:00:00 AM 49.3984 4.5953 255° West  Level Estimated
Sat 07:01:00 AM 49.3832 4.5103 255° West  Level Estimated
Sat 07:02:00 AM 49.3679 4.4253 255° West  Level Estimated
Sat 07:03:00 AM 49.3526 4.3403 255° West  Level Estimated
Sat 07:04:00 AM 49.3372 4.2554 254° West  Level Estimated
Sat 07:05:00 AM 49.3218 4.1705 254° West  Level Estimated
Sat 07:06:00 AM 49.3063 4.0857 254° West  Level Estimated
Sat 07:07:00 AM 49.2907 4.0010 254° West  Level Estimated
Sat 07:08:00 AM 49.2750 3.9163 254° West  Level Estimated
Sat 07:09:00 AM 49.2593 3.8317 254° West  Level Estimated
Sat 07:10:00 AM 49.2436 3.7471 254° West  Level Estimated
Sat 07:11:00 AM 49.2290 3.6692 254° West  Level Estimated
Sat 07:12:00 AM 49.2144 3.5914 254° West  Level Estimated
Sat 07:13:00 AM 49.1997 3.5136 254° West  Level Estimated
Sat 07:14:00 AM 49.1850 3.4359 254° West  Level Estimated
Sat 07:15:00 AM 49.1702 3.3582 254° West  Level Estimated
Sat 07:16:00 AM 49.1554 3.2806 254° West  Level Estimated
Sat 07:17:00 AM 49.1405 3.2030 254° West  Level Estimated
Sat 07:18:00 AM 49.1255 3.1255 254° West  Level Estimated
Sat 07:19:00 AM 49.1106 3.0480 254° West  Level Estimated
Sat 07:20:00 AM 49.0955 2.9706 254° West  Level Estimated
Sat 07:21:00 AM 49.0804 2.8932 253° West  Level Estimated
Sat 07:22:00 AM 49.0653 2.8158 253° West  Level Estimated
Sat 07:23:00 AM 49.0501 2.7385 253° West  Level Estimated
Sat 07:24:00 AM 49.0348 2.6613 253° West  Level Estimated
Sat 07:25:00 AM 49.0196 2.5841 253° West  Level Estimated
Sat 07:26:00 AM 49.0128 2.5500 253° West  Level Estimated
Sat 07:27:00 AM 49.0128 2.5500 180° South  Level Estimated
Sat 07:28:00 AM 49.0128 2.5500 180° South  Level Estimated
Sat 07:29:00 AM 49.0128 2.5500 180° South  Level Estimated
Sat 07:30:00 AM 49.0128 2.5500 180° South  Level Estimated
Sat 07:31:00 AM 49.0128 2.5500 180° South  Level Estimated
Sat 07:32:00 AM 49.0128 2.5500 180° South  Level Estimated
Sat 07:33:00 AM 49.0128 2.5500 180° South  Level Estimated
Sat 07:34:00 AM 49.0128 2.5500 180° South  Level Estimated
Sat 07:35:00 AM 49.0128 2.5500 180° South  Level Estimated
Sat 07:36:00 AM 49.0128 2.5500 180° South  Level Estimated
Sat 07:37:00 AM 49.0128 2.5500 180° South  Level Estimated
Sat 07:38:00 AM 49.0128 2.5500 180° South  Level Estimated
Sat 07:39:00 AM 49.0128 2.5500 180° South  Level Estimated
Sat 07:40:00 AM 49.0128 2.5500 180° South  Level Estimated
Sat 07:41:00 AM 49.0128 2.5500 180° South  Level Estimated

Login

Don't have an account? Register now (free) for customized features, flight alerts, and more!